createdAt,value
2022-08-29T00:00:18.533Z,5.20
2022-08-29T00:02:51.430Z,5.27
2022-08-29T00:05:25.173Z,6.07
2022-08-29T00:07:54.308Z,5.17
2022-08-29T00:10:23.531Z,5.77
2022-08-29T00:12:52.451Z,6.27
2022-08-29T00:15:22.448Z,5.93
2022-08-29T00:17:51.431Z,5.80
2022-08-29T00:20:33.936Z,5.40
2022-08-29T00:23:04.064Z,4.80
2022-08-29T00:25:33.140Z,5.20
2022-08-29T00:28:02.147Z,5.50
2022-08-29T00:30:31.853Z,4.90
2022-08-29T00:33:00.571Z,4.60
2022-08-29T00:35:34.197Z,4.43
2022-08-29T00:38:12.657Z,6.20
2022-08-29T00:40:47.836Z,5.53
2022-08-29T00:43:21.527Z,5.30
2022-08-29T00:45:55.708Z,5.53
2022-08-29T00:48:24.766Z,5.10
2022-08-29T00:50:57.669Z,5.70
2022-08-29T00:53:31.564Z,6.17
2022-08-29T00:56:01.152Z,6.00
2022-08-29T00:58:35.483Z,5.17
2022-08-29T01:01:05.192Z,5.97
2022-08-29T01:03:36.472Z,5.63
2022-08-29T01:06:14.095Z,5.50
2022-08-29T01:08:43.212Z,5.23
2022-08-29T01:11:32.434Z,6.20
2022-08-29T01:14:02.417Z,5.60
2022-08-29T01:16:31.708Z,5.67
2022-08-29T01:19:09.024Z,4.90
2022-08-29T01:21:44.035Z,5.80
2022-08-29T01:24:25.511Z,5.33
2022-08-29T01:26:54.265Z,4.37
2022-08-29T01:29:22.975Z,5.03
2022-08-29T01:31:56.753Z,6.23
2022-08-29T01:34:29.061Z,6.27
2022-08-29T01:36:59.836Z,5.60
2022-08-29T01:39:32.338Z,6.10
2022-08-29T01:42:03.888Z,6.17
2022-08-29T01:44:32.561Z,7.40
2022-08-29T01:47:03.274Z,5.90
2022-08-29T01:49:33.631Z,6.43
2022-08-29T01:52:02.886Z,5.57
2022-08-29T01:54:33.249Z,5.77
2022-08-29T01:57:02.725Z,7.00
2022-08-29T01:59:33.895Z,5.67
2022-08-29T02:02:07.628Z,6.17
2022-08-29T02:04:36.691Z,5.30
2022-08-29T02:07:12.530Z,6.73
2022-08-29T02:09:45.704Z,5.63
2022-08-29T02:12:15.132Z,6.10
2022-08-29T02:14:44.530Z,6.90
2022-08-29T02:17:13.174Z,6.40
2022-08-29T02:19:42.155Z,6.17
2022-08-29T02:22:12.011Z,5.70
2022-08-29T02:24:42.085Z,5.37
2022-08-29T02:27:12.665Z,5.90
2022-08-29T02:29:41.422Z,5.50
2022-08-29T02:32:16.154Z,6.13
2022-08-29T02:34:47.790Z,5.77
2022-08-29T02:37:17.853Z,5.17
2022-08-29T02:39:48.407Z,5.47
2022-08-29T02:42:17.144Z,6.40
2022-08-29T02:44:45.878Z,6.53
2022-08-29T02:47:14.410Z,5.70
2022-08-29T02:49:43.776Z,6.80
2022-08-29T02:52:12.928Z,4.70
2022-08-29T02:54:41.569Z,6.40
2022-08-29T02:57:11.559Z,6.20
2022-08-29T02:59:40.140Z,5.80
2022-08-29T03:02:08.775Z,6.10
2022-08-29T03:04:37.310Z,7.00
2022-08-29T03:07:06.338Z,5.43
2022-08-29T03:09:34.886Z,6.40
2022-08-29T03:12:03.686Z,6.67
2022-08-29T03:14:33.615Z,5.90
2022-08-29T03:17:02.127Z,5.50
2022-08-29T03:19:30.667Z,5.33
2022-08-29T03:22:06.174Z,5.47
2022-08-29T03:24:36.593Z,8.30
2022-08-29T03:27:05.530Z,5.97
2022-08-29T03:29:35.839Z,5.60
2022-08-29T03:32:05.040Z,6.50
2022-08-29T03:34:34.017Z,6.10
2022-08-29T03:37:02.594Z,6.90
2022-08-29T03:39:31.594Z,5.90
2022-08-29T03:42:00.219Z,6.13
2022-08-29T03:44:28.972Z,5.90
2022-08-29T03:46:59.317Z,6.30
2022-08-29T03:49:27.991Z,5.37
2022-08-29T03:51:56.819Z,6.07
2022-08-29T03:54:25.797Z,4.80
2022-08-29T03:56:55.602Z,6.20
2022-08-29T03:59:24.593Z,5.80
2022-08-29T04:01:53.320Z,5.70
2022-08-29T04:04:40.959Z,5.57
2022-08-29T04:07:13.127Z,5.10
2022-08-29T04:09:41.941Z,5.10
2022-08-29T04:12:11.481Z,5.50
2022-08-29T04:14:40.060Z,5.83
2022-08-29T04:17:10.243Z,6.70
2022-08-29T04:19:40.066Z,6.77
2022-08-29T04:22:09.199Z,6.07
2022-08-29T04:24:38.046Z,6.77
2022-08-29T04:27:06.766Z,6.37
2022-08-29T04:29:38.224Z,6.57
2022-08-29T04:32:06.965Z,6.07
2022-08-29T04:34:35.489Z,7.03
2022-08-29T04:37:05.637Z,7.10
2022-08-29T04:39:35.349Z,5.83
2022-08-29T04:42:03.975Z,6.63
2022-08-29T04:44:33.095Z,6.47
2022-08-29T04:47:01.827Z,5.60
2022-08-29T04:49:30.553Z,5.90
2022-08-29T04:51:59.056Z,5.77
2022-08-29T04:54:29.387Z,6.20
2022-08-29T04:56:58.050Z,5.97
2022-08-29T04:59:29.684Z,5.40
2022-08-29T05:01:58.815Z,6.13
2022-08-29T05:04:27.969Z,5.17
2022-08-29T05:06:56.838Z,6.30
2022-08-29T05:09:25.556Z,4.80
2022-08-29T05:11:55.718Z,4.90
2022-08-29T05:14:24.522Z,4.43
2022-08-29T05:16:53.307Z,5.33
2022-08-29T05:19:22.210Z,4.27
2022-08-29T05:21:57.039Z,4.23
2022-08-29T05:24:26.122Z,4.87
2022-08-29T05:26:58.967Z,4.87
2022-08-29T05:29:27.902Z,4.80
2022-08-29T05:31:56.721Z,4.63
2022-08-29T05:34:34.618Z,4.50
2022-08-29T05:37:05.910Z,4.50
2022-08-29T05:39:38.789Z,4.10
2022-08-29T05:42:16.856Z,5.00
2022-08-29T05:44:56.568Z,5.73
2022-08-29T05:47:35.516Z,4.40
2022-08-29T05:50:05.280Z,3.87
2022-08-29T05:52:38.566Z,3.97
2022-08-29T05:55:08.160Z,3.20
2022-08-29T05:57:40.198Z,4.23
2022-08-29T06:00:13.833Z,3.77
2022-08-29T06:02:43.007Z,4.10
2022-08-29T06:05:11.927Z,4.80
2022-08-29T06:07:43.927Z,5.33
2022-08-29T06:10:12.966Z,5.27
2022-08-29T06:12:50.455Z,4.80
2022-08-29T06:15:46.027Z,4.30
2022-08-29T06:18:31.645Z,5.67
2022-08-29T06:21:09.742Z,4.30
2022-08-29T06:23:42.320Z,4.90
2022-08-29T06:26:13.089Z,4.50
2022-08-29T06:28:52.518Z,4.27
2022-08-29T06:31:27.305Z,4.43
2022-08-29T06:33:58.246Z,4.57
2022-08-29T06:36:28.957Z,4.83
2022-08-29T06:38:58.629Z,4.10
2022-08-29T06:41:28.896Z,4.83
2022-08-29T06:44:00.353Z,4.80
2022-08-29T06:46:31.100Z,5.03
2022-08-29T06:49:01.681Z,4.87
2022-08-29T06:51:44.844Z,4.50
2022-08-29T06:54:17.650Z,4.40
2022-08-29T06:56:47.493Z,4.83
2022-08-29T06:59:18.402Z,4.67
2022-08-29T07:01:48.618Z,5.00
2022-08-29T07:04:20.757Z,5.20
2022-08-29T07:06:50.611Z,4.73
2022-08-29T07:09:19.348Z,4.30
2022-08-29T07:11:49.027Z,3.90
2022-08-29T07:14:20.523Z,4.00
2022-08-29T07:16:55.554Z,4.67
2022-08-29T07:19:24.914Z,5.20
2022-08-29T07:22:02.428Z,3.90
2022-08-29T07:24:31.351Z,5.13
2022-08-29T07:27:00.003Z,4.43
2022-08-29T07:29:30.026Z,4.53
2022-08-29T07:31:58.649Z,4.63
2022-08-29T07:34:27.272Z,4.43
2022-08-29T07:36:55.825Z,6.03
2022-08-29T07:39:24.522Z,3.80
2022-08-29T07:41:53.329Z,5.43
2022-08-29T07:44:21.977Z,5.47
2022-08-29T07:46:56.310Z,3.90
2022-08-29T07:49:32.454Z,4.20
2022-08-29T07:52:09.024Z,4.90
2022-08-29T07:54:37.782Z,4.90
2022-08-29T07:57:06.501Z,4.20
2022-08-29T07:59:35.053Z,4.73
2022-08-29T08:02:05.257Z,4.60
2022-08-29T08:04:34.214Z,4.07
2022-08-29T08:07:03.861Z,3.97
2022-08-29T08:09:32.846Z,4.20
2022-08-29T08:12:05.090Z,4.70
2022-08-29T08:14:36.728Z,3.67
2022-08-29T08:17:06.700Z,3.87
2022-08-29T08:19:35.298Z,4.17
2022-08-29T08:22:03.942Z,3.70
2022-08-29T08:24:32.834Z,4.67
2022-08-29T08:27:01.500Z,3.40
2022-08-29T08:29:30.120Z,4.00
2022-08-29T08:31:59.893Z,4.33
2022-08-29T08:34:30.313Z,4.40
2022-08-29T08:36:59.168Z,3.50
2022-08-29T08:39:27.715Z,3.83
2022-08-29T08:42:00.262Z,3.97
2022-08-29T08:44:55.752Z,3.37
2022-08-29T08:47:28.721Z,4.00
2022-08-29T08:50:02.798Z,4.03
2022-08-29T08:52:39.158Z,3.40
2022-08-29T08:55:15.459Z,3.00
2022-08-29T08:57:50.203Z,3.00
2022-08-29T09:00:18.894Z,4.00
2022-08-29T09:02:59.398Z,3.30
2022-08-29T09:05:40.750Z,3.07
2022-08-29T09:08:20.184Z,3.20
2022-08-29T09:10:58.868Z,3.37
2022-08-29T09:13:38.554Z,3.03
2022-08-29T09:16:10.795Z,4.03
2022-08-29T09:18:41.583Z,3.73
2022-08-29T09:21:39.493Z,3.30
2022-08-29T09:24:07.701Z,3.27
2022-08-29T09:26:36.760Z,3.50
2022-08-29T09:29:10.073Z,3.47
2022-08-29T09:31:39.255Z,4.00
2022-08-29T09:34:12.082Z,4.03
2022-08-29T09:36:47.892Z,3.87
2022-08-29T09:39:22.988Z,4.13
2022-08-29T09:42:00.126Z,3.33
2022-08-29T09:44:31.762Z,4.33
2022-08-29T09:47:12.557Z,5.00
2022-08-29T09:50:01.280Z,3.83
2022-08-29T09:52:31.471Z,3.53
2022-08-29T09:55:19.784Z,4.40
2022-08-29T09:57:53.288Z,3.03
2022-08-29T10:00:32.016Z,3.07
2022-08-29T10:03:03.636Z,3.80
2022-08-29T10:05:44.747Z,2.50
2022-08-29T10:08:30.662Z,3.30
2022-08-29T10:11:02.691Z,3.30
2022-08-29T10:13:38.922Z,2.93
2022-08-29T10:16:16.873Z,3.13
2022-08-29T10:18:49.481Z,3.23
2022-08-29T10:21:30.162Z,3.90
2022-08-29T10:24:30.216Z,2.30
2022-08-29T10:27:06.337Z,2.93
2022-08-29T10:29:58.096Z,2.80
2022-08-29T10:32:42.122Z,3.13
2022-08-29T10:35:18.179Z,3.23
2022-08-29T10:37:54.225Z,3.47
2022-08-29T10:40:29.299Z,3.30
2022-08-29T10:43:29.106Z,3.73
2022-08-29T10:46:31.284Z,4.33
2022-08-29T10:49:06.201Z,2.63
2022-08-29T10:51:42.497Z,3.40
2022-08-29T10:54:21.312Z,3.00
2022-08-29T10:56:53.194Z,3.77
2022-08-29T10:59:33.402Z,4.03
2022-08-29T11:02:08.098Z,4.07
2022-08-29T11:04:41.455Z,3.67
2022-08-29T11:07:17.143Z,2.90
2022-08-29T11:09:49.261Z,3.63
2022-08-29T11:12:24.857Z,3.53
2022-08-29T11:14:58.849Z,3.30
2022-08-29T11:17:33.394Z,2.83
2022-08-29T11:20:09.689Z,3.20
2022-08-29T11:22:44.741Z,3.20
2022-08-29T11:25:16.571Z,4.00
2022-08-29T11:27:57.511Z,3.17
2022-08-29T11:30:36.340Z,3.47
2022-08-29T11:33:15.312Z,3.80
2022-08-29T11:35:54.298Z,3.60
2022-08-29T11:38:50.631Z,3.23
2022-08-29T11:41:28.504Z,2.20
2022-08-29T11:44:09.822Z,3.13
2022-08-29T11:46:43.059Z,3.20
2022-08-29T11:49:38.200Z,3.20
2022-08-29T11:52:22.391Z,2.67
2022-08-29T11:55:11.043Z,3.10
2022-08-29T11:57:52.285Z,3.20
2022-08-29T12:00:47.927Z,3.33
2022-08-29T12:03:53.309Z,3.10
2022-08-29T12:06:57.338Z,3.10
2022-08-29T12:09:47.492Z,3.20
2022-08-29T12:12:43.929Z,2.87
2022-08-29T12:15:46.069Z,6.10
2022-08-29T12:18:38.186Z,3.63
2022-08-29T12:21:40.520Z,3.07
2022-08-29T12:24:24.959Z,3.50
2022-08-29T12:26:55.044Z,3.30
2022-08-29T12:32:46.836Z,3.07
2022-08-29T12:35:31.253Z,2.83
2022-08-29T12:38:14.091Z,3.27
2022-08-29T12:41:02.693Z,3.40
2022-08-29T12:43:36.515Z,3.30
2022-08-29T12:46:11.416Z,3.37
2022-08-29T12:48:53.345Z,3.20
2022-08-29T12:51:42.014Z,4.10
2022-08-29T13:00:35.996Z,3.47
2022-08-29T13:03:14.737Z,2.57
2022-08-29T13:05:43.362Z,2.80
2022-08-29T13:08:13.685Z,2.97
2022-08-29T13:10:54.232Z,3.10
2022-08-29T13:13:23.610Z,2.37
2022-08-29T13:15:52.996Z,2.67
2022-08-29T13:23:26.364Z,2.67
2022-08-29T13:25:58.353Z,2.67
2022-08-29T13:28:37.357Z,3.10
2022-08-29T13:31:25.796Z,2.60
2022-08-29T13:34:22.314Z,3.43
2022-08-29T13:37:03.150Z,2.97
2022-08-29T13:39:41.651Z,2.37
2022-08-29T13:42:31.694Z,2.33
2022-08-29T13:45:22.844Z,2.63
2022-08-29T13:48:00.553Z,2.40
2022-08-29T13:50:30.162Z,2.63
2022-08-29T13:53:00.257Z,2.90
2022-08-29T13:55:30.419Z,3.97
2022-08-29T13:57:59.315Z,3.03
2022-08-29T14:00:35.294Z,3.13
2022-08-29T14:03:07.495Z,2.90
2022-08-29T14:05:38.142Z,3.30
2022-08-29T14:08:07.568Z,2.47
2022-08-29T14:10:37.594Z,2.63
2022-08-29T14:13:09.845Z,2.60
2022-08-29T14:15:39.644Z,2.40
2022-08-29T14:18:08.345Z,2.30
2022-08-29T14:20:39.020Z,2.53
2022-08-29T14:23:08.052Z,2.80
2022-08-29T14:25:38.072Z,2.67
2022-08-29T14:28:10.151Z,2.70
2022-08-29T14:30:42.995Z,3.80
2022-08-29T14:33:23.462Z,2.27
2022-08-29T14:35:52.197Z,2.37
2022-08-29T14:38:20.759Z,3.30
2022-08-29T14:40:50.850Z,3.47
2022-08-29T14:43:19.432Z,3.13
2022-08-29T14:45:48.015Z,3.23
2022-08-29T14:48:17.011Z,3.10
2022-08-29T14:50:45.692Z,2.27
2022-08-29T14:53:14.240Z,3.13
2022-08-29T14:55:42.829Z,2.37
2022-08-29T14:58:12.857Z,2.70
2022-08-29T15:00:42.110Z,2.67
2022-08-29T15:03:10.746Z,3.20
2022-08-29T15:05:40.419Z,3.00
2022-08-29T15:08:12.422Z,2.77
2022-08-29T15:10:44.233Z,2.57
2022-08-29T15:13:14.197Z,2.30
2022-08-29T15:15:45.002Z,3.03
2022-08-29T15:18:26.010Z,2.63
2022-08-29T15:21:03.611Z,2.70
2022-08-29T15:23:33.823Z,2.70
2022-08-29T15:26:02.537Z,3.97
2022-08-29T15:28:32.918Z,3.10
2022-08-29T15:31:01.646Z,3.10
2022-08-29T15:33:30.191Z,2.83
2022-08-29T15:35:58.770Z,4.23
2022-08-29T15:38:27.301Z,2.63
2022-08-29T15:40:55.863Z,5.20
2022-08-29T15:43:24.636Z,3.30
2022-08-29T15:45:58.648Z,3.37
2022-08-29T15:48:27.897Z,3.77
2022-08-29T15:50:56.399Z,3.60
2022-08-29T15:53:25.081Z,2.50
2022-08-29T15:55:53.602Z,3.27
2022-08-29T15:58:22.277Z,3.00
2022-08-29T16:00:50.851Z,2.77
2022-08-29T16:03:21.042Z,3.43
2022-08-29T16:05:49.647Z,3.10
2022-08-29T16:08:18.804Z,3.73
2022-08-29T16:10:50.512Z,3.63
2022-08-29T16:13:19.514Z,2.70
2022-08-29T16:15:49.149Z,2.83
2022-08-29T16:18:19.114Z,3.40
2022-08-29T16:20:47.647Z,2.77
2022-08-29T16:23:18.773Z,3.47
2022-08-29T16:25:49.121Z,3.27
2022-08-29T16:28:18.230Z,3.37
2022-08-29T16:30:49.724Z,4.17
2022-08-29T16:33:19.797Z,3.90
2022-08-29T16:35:48.320Z,3.63
2022-08-29T16:38:17.102Z,3.57
2022-08-29T16:40:46.255Z,3.93
2022-08-29T16:43:14.963Z,3.23
2022-08-29T16:45:43.880Z,3.60
2022-08-29T16:48:17.511Z,3.73
2022-08-29T16:50:48.624Z,4.60
2022-08-29T16:53:19.167Z,3.27
2022-08-29T16:55:47.777Z,4.10
2022-08-29T16:58:33.832Z,3.77
2022-08-29T17:01:03.451Z,3.37
2022-08-29T17:03:32.146Z,4.07
2022-08-29T17:06:02.290Z,4.03
2022-08-29T17:08:29.908Z,4.27
2022-08-29T17:10:57.740Z,4.33
2022-08-29T17:13:25.430Z,3.80
2022-08-29T17:15:53.033Z,4.47
2022-08-29T17:18:22.283Z,4.87
2022-08-29T17:20:52.880Z,4.07
2022-08-29T17:23:23.043Z,3.70
2022-08-29T17:25:51.633Z,3.70
2022-08-29T17:28:20.336Z,3.63
2022-08-29T17:30:49.521Z,4.30
2022-08-29T17:33:18.941Z,3.70
2022-08-29T17:35:48.479Z,3.97
2022-08-29T17:38:17.542Z,5.10
2022-08-29T17:40:49.154Z,4.40
2022-08-29T17:43:19.915Z,9.87
2022-08-29T17:45:49.556Z,4.73
2022-08-29T17:48:19.424Z,3.60
2022-08-29T17:50:48.844Z,3.40
2022-08-29T17:53:18.559Z,4.70
2022-08-29T17:55:50.989Z,5.00
2022-08-29T17:58:20.714Z,3.80
2022-08-29T18:00:52.336Z,6.57
2022-08-29T18:03:21.229Z,4.30
2022-08-29T18:05:52.282Z,5.20
2022-08-29T18:08:20.821Z,5.43
2022-08-29T18:10:52.043Z,4.63
2022-08-29T18:13:21.910Z,6.00
2022-08-29T18:15:52.621Z,5.23
2022-08-29T18:18:21.960Z,4.90
2022-08-29T18:20:50.842Z,5.77
2022-08-29T18:23:19.396Z,5.00
2022-08-29T18:25:49.335Z,5.20
2022-08-29T18:28:18.004Z,13.47
2022-08-29T18:30:46.668Z,39.33
2022-08-29T18:33:15.350Z,17.60
2022-08-29T18:35:44.025Z,5.90
2022-08-29T18:38:13.189Z,7.20
2022-08-29T18:40:41.918Z,6.83
2022-08-29T18:43:12.441Z,5.60
2022-08-29T18:45:42.978Z,5.70
2022-08-29T18:48:11.680Z,5.37
2022-08-29T18:50:40.259Z,6.27
2022-08-29T18:53:11.905Z,6.23
2022-08-29T18:55:43.960Z,5.40
2022-08-29T18:58:19.899Z,5.60
2022-08-29T19:00:48.879Z,5.87
2022-08-29T19:03:17.971Z,5.73
2022-08-29T19:05:49.742Z,6.20
2022-08-29T19:08:18.852Z,6.53
2022-08-29T19:10:48.475Z,5.73
2022-08-29T19:13:19.823Z,6.67
2022-08-29T19:15:48.598Z,6.60
2022-08-29T19:18:18.908Z,7.03
2022-08-29T19:21:06.390Z,7.07
2022-08-29T19:23:41.062Z,6.33
2022-08-29T19:26:13.643Z,6.60
2022-08-29T19:32:19.361Z,7.10
2022-08-29T19:35:28.847Z,7.70
2022-08-29T19:38:37.847Z,6.87
2022-08-29T19:41:07.397Z,6.80
2022-08-29T19:43:38.771Z,6.97
2022-08-29T19:46:18.051Z,6.90
2022-08-29T19:48:50.927Z,6.10
2022-08-29T19:51:25.493Z,7.37
2022-08-29T19:53:57.124Z,6.20
2022-08-29T19:56:26.655Z,7.70
2022-08-29T19:58:55.490Z,7.40
2022-08-29T20:01:25.728Z,7.73
2022-08-29T20:03:56.535Z,6.20
2022-08-29T20:06:25.135Z,6.73
2022-08-29T20:08:53.737Z,6.20
2022-08-29T20:11:25.226Z,7.07
2022-08-29T20:14:00.961Z,7.33
2022-08-29T20:16:34.657Z,7.50
2022-08-29T20:19:05.985Z,7.37
2022-08-29T20:21:35.983Z,7.50
2022-08-29T20:24:05.761Z,7.60
2022-08-29T20:26:39.469Z,7.47
2022-08-29T20:29:31.902Z,7.60
2022-08-29T20:32:10.209Z,8.53
2022-08-29T20:34:48.031Z,6.80
2022-08-29T20:37:34.411Z,8.10
2022-08-29T20:40:10.020Z,7.90
2022-08-29T20:42:42.175Z,8.50
2022-08-29T20:46:01.408Z,8.70
2022-08-29T20:48:42.461Z,7.50
2022-08-29T20:54:38.229Z,7.80
2022-08-29T20:57:07.467Z,7.97
2022-08-29T20:59:39.447Z,9.03
2022-08-29T21:02:09.908Z,8.70
2022-08-29T21:04:56.531Z,8.73
2022-08-29T21:07:27.325Z,9.00
2022-08-29T21:09:55.997Z,8.80
2022-08-29T21:12:27.473Z,7.90
2022-08-29T21:14:56.230Z,8.77
2022-08-29T21:17:24.808Z,8.33
2022-08-29T21:19:53.319Z,7.63
2022-08-29T21:22:24.971Z,8.80
2022-08-29T21:24:56.242Z,8.70
2022-08-29T21:27:24.854Z,9.40
2022-08-29T21:29:55.944Z,9.07
2022-08-29T21:32:24.903Z,8.70
2022-08-29T21:34:59.062Z,8.27
2022-08-29T21:37:28.579Z,8.13
2022-08-29T21:40:01.714Z,8.50
2022-08-29T21:42:30.601Z,9.33
2022-08-29T21:44:59.678Z,7.07
2022-08-29T21:47:28.223Z,8.03
2022-08-29T21:49:57.091Z,10.30
2022-08-29T21:52:25.860Z,8.33
2022-08-29T21:54:55.104Z,9.47
2022-08-29T21:57:42.668Z,8.80
2022-08-29T22:00:13.005Z,9.57
2022-08-29T22:02:42.282Z,9.30
2022-08-29T22:05:11.058Z,8.77
2022-08-29T22:07:40.635Z,9.17
2022-08-29T22:10:13.626Z,9.97
2022-08-29T22:12:43.715Z,9.23
2022-08-29T22:15:30.350Z,8.87
2022-08-29T22:17:59.074Z,9.27
2022-08-29T22:20:27.938Z,9.30
2022-08-29T22:22:57.491Z,9.27
2022-08-29T22:25:27.166Z,8.83
2022-08-29T22:27:58.703Z,9.17
2022-08-29T22:30:32.069Z,9.10
2022-08-29T22:33:01.391Z,8.90
2022-08-29T22:35:30.405Z,8.23
2022-08-29T22:37:59.132Z,9.40
2022-08-29T22:40:28.194Z,9.50
2022-08-29T22:42:58.231Z,8.40
2022-08-29T22:45:26.845Z,10.27
2022-08-29T22:47:55.546Z,9.90
2022-08-29T22:50:25.838Z,9.10
2022-08-29T22:52:57.517Z,10.50
2022-08-29T22:57:54.432Z,8.07
2022-08-29T23:00:26.807Z,8.37
2022-08-29T23:02:56.057Z,8.73
2022-08-29T23:05:25.260Z,9.37
2022-08-29T23:07:54.081Z,9.50
2022-08-29T23:10:23.004Z,9.77
2022-08-29T23:12:51.687Z,8.93
2022-08-29T23:15:20.749Z,9.30
2022-08-29T23:17:50.721Z,9.50
2022-08-29T23:20:19.462Z,9.93
2022-08-29T23:22:48.729Z,10.10
2022-08-29T23:25:17.909Z,9.67
2022-08-29T23:27:46.562Z,11.10
2022-08-29T23:30:15.682Z,10.67
2022-08-29T23:32:44.248Z,9.67
2022-08-29T23:35:14.321Z,9.63
2022-08-29T23:37:42.939Z,10.50
2022-08-29T23:40:12.348Z,9.10
2022-08-29T23:42:41.137Z,10.00
2022-08-29T23:45:11.243Z,9.77
2022-08-29T23:47:40.067Z,9.80
2022-08-29T23:50:09.806Z,10.93
2022-08-29T23:52:39.759Z,9.40
2022-08-29T23:55:09.480Z,11.43
2022-08-29T23:57:38.462Z,11.20
